createdAt,value
2017-09-27T00:00:12.847Z,3.27
2017-09-27T00:02:42.551Z,3.03
2017-09-27T00:05:12.164Z,3.93
2017-09-27T00:07:42.034Z,2.53
2017-09-27T00:10:12.397Z,3.20
2017-09-27T00:12:41.938Z,2.93
2017-09-27T00:15:12.530Z,3.57
2017-09-27T00:17:42.864Z,2.93
2017-09-27T00:20:13.496Z,4.23
2017-09-27T00:22:42.835Z,2.97
2017-09-27T00:25:12.793Z,2.93
2017-09-27T00:27:42.688Z,3.80
2017-09-27T00:30:12.087Z,3.20
2017-09-27T00:32:41.631Z,3.17
2017-09-27T00:35:10.773Z,3.10
2017-09-27T00:37:39.916Z,2.63
2017-09-27T00:40:09.274Z,2.00
2017-09-27T00:45:13.581Z,2.80
2017-09-27T00:47:42.860Z,2.87
2017-09-27T00:50:12.121Z,4.83
2017-09-27T00:52:41.798Z,5.20
2017-09-27T00:55:11.601Z,2.90
2017-09-27T00:57:41.733Z,3.43
2017-09-27T01:00:10.876Z,2.13
2017-09-27T01:02:40.739Z,4.70
2017-09-27T01:05:09.976Z,2.77
2017-09-27T01:07:39.852Z,2.33
2017-09-27T01:10:09.973Z,2.60
2017-09-27T01:12:40.435Z,4.10
2017-09-27T01:15:11.787Z,4.20
2017-09-27T01:17:41.311Z,3.67
2017-09-27T01:20:10.490Z,2.73
2017-09-27T01:22:40.890Z,2.80
2017-09-27T01:25:10.155Z,2.97
2017-09-27T01:27:40.171Z,3.47
2017-09-27T01:30:11.483Z,2.97
2017-09-27T01:32:41.347Z,4.77
2017-09-27T01:35:10.672Z,6.60
2017-09-27T01:37:39.979Z,3.60
2017-09-27T01:40:09.328Z,4.70
2017-09-27T01:42:38.648Z,3.20
2017-09-27T01:45:08.662Z,3.23
2017-09-27T01:47:38.063Z,4.70
2017-09-27T01:50:07.298Z,3.03
2017-09-27T01:52:36.935Z,3.23
2017-09-27T01:55:07.046Z,6.23
2017-09-27T01:57:36.503Z,3.33
2017-09-27T02:00:06.505Z,4.23
2017-09-27T02:02:35.871Z,3.83
2017-09-27T02:05:05.284Z,4.87
2017-09-27T02:07:34.415Z,3.80
2017-09-27T02:10:04.378Z,3.00
2017-09-27T02:12:33.817Z,2.80
2017-09-27T02:15:04.113Z,2.90
2017-09-27T02:17:34.079Z,3.67
2017-09-27T02:20:03.433Z,2.90
2017-09-27T02:22:33.076Z,3.73
2017-09-27T02:25:02.757Z,3.70
2017-09-27T02:27:32.414Z,3.40
2017-09-27T02:30:02.128Z,15.50
2017-09-27T02:32:31.495Z,5.33
2017-09-27T02:35:00.820Z,7.50
2017-09-27T02:37:30.121Z,4.10
2017-09-27T02:39:59.921Z,3.63
2017-09-27T02:42:29.347Z,3.97
2017-09-27T02:44:58.781Z,3.10
2017-09-27T02:47:27.912Z,8.70
2017-09-27T02:49:57.468Z,4.60
2017-09-27T02:52:28.059Z,3.83
2017-09-27T02:54:57.594Z,7.77
2017-09-27T02:57:27.269Z,3.93
2017-09-27T02:59:57.615Z,4.40
2017-09-27T03:02:26.783Z,4.93
2017-09-27T03:04:56.521Z,3.80
2017-09-27T03:07:25.853Z,3.90
2017-09-27T03:09:55.128Z,5.07
2017-09-27T03:12:24.325Z,3.30
2017-09-27T03:14:54.127Z,4.80
2017-09-27T03:17:23.320Z,5.10
2017-09-27T03:19:53.585Z,4.03
2017-09-27T03:22:22.942Z,3.30
2017-09-27T03:24:51.597Z,3.57
2017-09-27T03:27:21.341Z,4.50
2017-09-27T03:29:50.849Z,4.10
2017-09-27T03:32:20.679Z,6.47
2017-09-27T03:34:49.941Z,6.50
2017-09-27T03:37:20.308Z,7.63
2017-09-27T03:39:49.009Z,5.10
2017-09-27T03:42:18.636Z,5.17
2017-09-27T03:44:48.091Z,5.67
2017-09-27T03:47:17.489Z,7.13
2017-09-27T03:49:46.932Z,4.77
2017-09-27T03:52:16.390Z,4.13
2017-09-27T03:54:45.762Z,5.90
2017-09-27T03:57:15.465Z,3.47
2017-09-27T03:59:45.019Z,3.73
2017-09-27T04:02:14.254Z,5.03
2017-09-27T04:04:43.561Z,4.80
2017-09-27T04:07:13.424Z,3.33
2017-09-27T04:09:43.017Z,4.67
2017-09-27T04:12:13.226Z,5.00
2017-09-27T04:14:42.732Z,4.03
2017-09-27T04:17:12.216Z,4.60
2017-09-27T04:22:35.936Z,3.60
2017-09-27T04:25:06.080Z,5.50
2017-09-27T04:27:36.081Z,4.80
2017-09-27T04:30:05.485Z,3.90
2017-09-27T04:32:36.612Z,3.80
2017-09-27T04:35:07.007Z,4.20
2017-09-27T04:37:36.595Z,4.50
2017-09-27T04:40:06.289Z,6.70
2017-09-27T04:42:35.837Z,4.37
2017-09-27T04:45:05.214Z,5.27
2017-09-27T04:47:34.459Z,5.53
2017-09-27T04:50:03.795Z,5.53
2017-09-27T04:52:33.411Z,4.90
2017-09-27T04:55:02.851Z,6.03
2017-09-27T04:57:32.297Z,8.00
2017-09-27T05:00:02.208Z,8.97
2017-09-27T05:02:32.066Z,7.17
2017-09-27T05:05:01.206Z,4.80
2017-09-27T05:07:30.782Z,6.20
2017-09-27T05:09:59.912Z,5.07
2017-09-27T05:12:30.165Z,6.20
2017-09-27T05:14:59.457Z,4.57
2017-09-27T05:17:28.831Z,7.17
2017-09-27T05:19:58.212Z,5.40
2017-09-27T05:22:27.778Z,4.43
2017-09-27T05:24:57.593Z,5.47
2017-09-27T05:27:26.827Z,5.20
2017-09-27T05:29:56.014Z,5.60
2017-09-27T05:32:25.304Z,4.93
2017-09-27T05:34:54.546Z,7.33
2017-09-27T05:37:23.717Z,4.47
2017-09-27T05:39:52.798Z,6.13
2017-09-27T05:42:21.872Z,4.90
2017-09-27T05:44:51.395Z,7.50
2017-09-27T05:47:22.207Z,8.10
2017-09-27T05:49:51.537Z,7.00
2017-09-27T05:52:20.582Z,5.50
2017-09-27T05:54:50.025Z,6.70
2017-09-27T05:57:19.302Z,9.50
2017-09-27T05:59:48.568Z,5.20
2017-09-27T06:02:17.976Z,5.27
2017-09-27T06:04:47.280Z,5.73
2017-09-27T06:07:16.402Z,5.10
2017-09-27T06:09:45.851Z,4.63
2017-09-27T06:12:15.270Z,5.90
2017-09-27T06:14:44.630Z,6.67
2017-09-27T06:17:14.068Z,5.00
2017-09-27T06:19:43.468Z,6.40
2017-09-27T06:22:12.725Z,7.07
2017-09-27T06:24:41.831Z,8.30
2017-09-27T06:27:11.835Z,6.63
2017-09-27T06:29:41.327Z,9.10
2017-09-27T06:32:10.471Z,6.67
2017-09-27T06:34:39.771Z,6.07
2017-09-27T06:37:09.356Z,6.83
2017-09-27T06:39:38.763Z,5.30
2017-09-27T06:42:07.958Z,7.90
2017-09-27T06:44:37.406Z,8.33
2017-09-27T06:47:06.407Z,5.70
2017-09-27T06:49:35.674Z,6.50
2017-09-27T06:52:04.865Z,7.97
2017-09-27T06:54:34.332Z,5.90
2017-09-27T06:57:04.443Z,9.60
2017-09-27T06:59:34.727Z,6.00
2017-09-27T07:02:04.007Z,6.23
2017-09-27T07:04:33.100Z,7.57
2017-09-27T07:07:02.433Z,6.40
2017-09-27T07:09:31.745Z,7.07
2017-09-27T07:12:00.950Z,8.00
2017-09-27T07:14:30.007Z,7.57
2017-09-27T07:16:59.349Z,6.10
2017-09-27T07:19:28.853Z,6.83
2017-09-27T07:21:58.096Z,7.13
2017-09-27T07:24:27.491Z,9.27
2017-09-27T07:26:57.209Z,6.10
2017-09-27T07:29:27.694Z,10.33
2017-09-27T07:31:57.243Z,5.63
2017-09-27T07:34:26.638Z,6.30
2017-09-27T07:36:56.278Z,7.07
2017-09-27T07:39:25.599Z,6.07
2017-09-27T07:41:54.766Z,7.03
2017-09-27T07:44:24.279Z,6.70
2017-09-27T07:46:53.509Z,7.17
2017-09-27T07:49:22.931Z,6.70
2017-09-27T07:51:52.428Z,6.77
2017-09-27T07:54:22.419Z,6.63
2017-09-27T07:56:51.701Z,7.20
2017-09-27T07:59:20.692Z,7.20
2017-09-27T08:01:49.995Z,8.60
2017-09-27T08:04:19.369Z,7.03
2017-09-27T08:06:48.549Z,9.47
2017-09-27T08:09:18.895Z,6.03
2017-09-27T08:11:48.075Z,9.10
2017-09-27T08:14:17.196Z,7.13
2017-09-27T08:16:46.667Z,7.10
2017-09-27T08:19:17.072Z,9.23
2017-09-27T08:21:46.245Z,6.53
2017-09-27T08:24:15.390Z,8.40
2017-09-27T08:26:44.873Z,7.17
2017-09-27T08:29:14.002Z,9.33
2017-09-27T08:31:43.836Z,9.60
2017-09-27T08:34:13.306Z,9.07
2017-09-27T08:36:42.421Z,8.03
2017-09-27T08:39:11.531Z,7.40
2017-09-27T08:41:40.790Z,7.50
2017-09-27T08:44:10.079Z,7.23
2017-09-27T08:46:39.449Z,7.07
2017-09-27T08:49:08.777Z,7.43
2017-09-27T08:51:38.212Z,11.17
2017-09-27T08:54:08.543Z,7.90
2017-09-27T08:56:37.975Z,6.93
2017-09-27T08:59:08.152Z,8.43
2017-09-27T09:01:38.327Z,7.30
2017-09-27T09:04:07.450Z,8.70
2017-09-27T09:06:36.824Z,8.70
2017-09-27T09:09:06.130Z,7.93
2017-09-27T09:11:35.656Z,8.77
2017-09-27T09:14:05.114Z,7.50
2017-09-27T09:16:34.654Z,7.27
2017-09-27T09:19:04.026Z,8.40
2017-09-27T09:21:33.239Z,7.77
2017-09-27T09:24:02.732Z,7.83
2017-09-27T09:26:31.982Z,7.60
2017-09-27T09:29:01.216Z,9.47
2017-09-27T09:31:30.538Z,6.67
2017-09-27T09:34:00.377Z,8.60
2017-09-27T09:36:29.682Z,10.80
2017-09-27T09:38:58.905Z,8.03
2017-09-27T09:41:28.096Z,9.40
2017-09-27T09:43:57.648Z,9.83
2017-09-27T09:46:27.175Z,8.17
2017-09-27T09:48:56.779Z,9.10
2017-09-27T09:51:26.470Z,9.20
2017-09-27T09:53:55.708Z,9.90
2017-09-27T09:56:24.998Z,9.70
2017-09-27T09:58:54.573Z,8.13
2017-09-27T10:01:23.938Z,8.00
2017-09-27T10:03:53.045Z,7.50
2017-09-27T10:06:23.508Z,7.70
2017-09-27T10:08:52.701Z,7.93
2017-09-27T10:11:22.000Z,11.30
2017-09-27T10:13:51.594Z,8.53
2017-09-27T10:16:21.047Z,6.97
2017-09-27T10:18:50.375Z,6.53
2017-09-27T10:21:19.729Z,8.20
2017-09-27T10:23:49.073Z,8.03
2017-09-27T10:26:18.504Z,8.80
2017-09-27T10:28:47.686Z,12.97
2017-09-27T10:31:17.291Z,7.60
2017-09-27T10:33:47.626Z,8.67
2017-09-27T10:36:17.649Z,12.17
2017-09-27T10:38:46.977Z,9.13
2017-09-27T10:41:16.115Z,8.23
2017-09-27T10:43:45.586Z,7.43
2017-09-27T10:46:14.976Z,9.03
2017-09-27T10:48:44.342Z,7.50
2017-09-27T10:51:13.851Z,8.80
2017-09-27T10:53:42.951Z,8.50
2017-09-27T10:56:12.160Z,8.77
2017-09-27T10:58:42.040Z,9.70
2017-09-27T11:01:11.218Z,9.80
2017-09-27T11:03:40.553Z,10.13
2017-09-27T11:06:09.857Z,9.03
2017-09-27T11:08:39.855Z,8.30
2017-09-27T11:11:09.050Z,9.23
2017-09-27T11:13:38.323Z,13.30
2017-09-27T11:16:07.570Z,14.23
2017-09-27T11:18:37.068Z,12.53
2017-09-27T11:21:06.219Z,9.63
2017-09-27T11:23:35.759Z,11.77
2017-09-27T11:26:04.861Z,10.40
2017-09-27T11:28:34.322Z,8.83
2017-09-27T11:31:03.851Z,12.20
2017-09-27T11:33:33.143Z,10.23
2017-09-27T11:36:02.439Z,9.50
2017-09-27T11:38:32.284Z,8.77
2017-09-27T11:41:01.627Z,11.90
2017-09-27T11:43:30.967Z,9.50
2017-09-27T11:46:00.123Z,9.30
2017-09-27T11:48:29.318Z,11.07
2017-09-27T11:50:58.468Z,11.70
2017-09-27T11:53:27.806Z,8.17
2017-09-27T11:55:57.721Z,8.10
2017-09-27T11:58:27.832Z,9.07
2017-09-27T12:00:57.235Z,8.80
2017-09-27T12:03:27.345Z,8.67
2017-09-27T12:05:56.538Z,12.40
2017-09-27T12:08:25.830Z,14.00
2017-09-27T12:10:55.079Z,11.67
2017-09-27T12:13:24.415Z,13.17
2017-09-27T12:15:53.619Z,9.53
2017-09-27T12:18:22.926Z,9.30
2017-09-27T12:20:52.244Z,10.60
2017-09-27T12:23:21.526Z,10.20
2017-09-27T12:25:50.779Z,9.40
2017-09-27T12:28:20.225Z,8.73
2017-09-27T12:30:49.615Z,9.40
2017-09-27T12:33:19.205Z,11.07
2017-09-27T12:35:48.651Z,10.93
2017-09-27T12:38:17.848Z,10.03
2017-09-27T12:40:48.785Z,10.43
2017-09-27T12:43:18.059Z,9.97
2017-09-27T12:45:47.506Z,10.00
2017-09-27T12:48:16.856Z,12.23
2017-09-27T12:50:46.175Z,9.53
2017-09-27T12:53:15.572Z,8.63
2017-09-27T12:55:45.068Z,8.30
2017-09-27T12:58:14.459Z,8.40
2017-09-27T13:00:44.211Z,11.77
2017-09-27T13:03:13.349Z,8.93
2017-09-27T13:05:42.513Z,12.50
2017-09-27T13:08:11.700Z,14.87
2017-09-27T13:10:40.879Z,9.67
2017-09-27T13:13:10.234Z,11.93
2017-09-27T13:15:39.664Z,8.87
2017-09-27T13:18:09.503Z,10.60
2017-09-27T13:20:39.192Z,9.13
2017-09-27T13:23:09.379Z,8.53
2017-09-27T13:25:40.226Z,9.73
2017-09-27T13:28:09.755Z,9.70
2017-09-27T13:30:40.660Z,12.30
2017-09-27T13:33:10.407Z,10.63
2017-09-27T13:35:39.918Z,14.63
2017-09-27T13:38:10.405Z,10.47
2017-09-27T13:40:39.812Z,11.90
2017-09-27T13:43:09.822Z,9.93
2017-09-27T13:45:39.462Z,13.00
2017-09-27T13:48:08.813Z,9.10
2017-09-27T13:50:38.088Z,9.63
2017-09-27T13:53:07.469Z,10.73
2017-09-27T13:55:36.702Z,9.30
2017-09-27T13:58:06.202Z,10.83
2017-09-27T14:00:35.938Z,15.13
2017-09-27T14:03:05.292Z,9.83
2017-09-27T14:05:34.636Z,13.50
2017-09-27T14:08:05.791Z,15.30
2017-09-27T14:10:35.123Z,12.03
2017-09-27T14:13:05.316Z,11.77
2017-09-27T14:15:34.403Z,12.53
2017-09-27T14:18:03.792Z,12.37
2017-09-27T14:20:33.167Z,13.60
2017-09-27T14:23:02.450Z,11.70
2017-09-27T14:25:31.955Z,13.13
2017-09-27T14:28:01.332Z,13.10
2017-09-27T14:30:31.664Z,11.23
2017-09-27T14:33:00.875Z,15.57
2017-09-27T14:35:30.892Z,9.83
2017-09-27T14:38:00.039Z,17.10
2017-09-27T14:40:29.351Z,13.33
2017-09-27T14:42:58.829Z,16.90
2017-09-27T14:45:29.347Z,13.17
2017-09-27T14:47:58.676Z,14.07
2017-09-27T14:50:27.955Z,12.90
2017-09-27T14:52:57.751Z,14.73
2017-09-27T14:55:27.188Z,14.10
2017-09-27T14:57:56.780Z,12.03
2017-09-27T15:00:26.347Z,12.87
2017-09-27T15:02:56.542Z,13.27
2017-09-27T15:05:25.907Z,12.47
2017-09-27T15:07:54.974Z,12.83
2017-09-27T15:10:24.268Z,13.77
2017-09-27T15:12:53.763Z,12.13
2017-09-27T15:15:22.829Z,17.40
2017-09-27T15:17:52.341Z,10.20
2017-09-27T15:20:21.628Z,13.57
2017-09-27T15:22:50.643Z,10.80
2017-09-27T15:25:20.001Z,11.63
2017-09-27T15:27:49.476Z,12.10
2017-09-27T15:30:19.579Z,9.57
2017-09-27T15:32:48.834Z,9.77
2017-09-27T15:35:18.073Z,11.03
2017-09-27T15:37:47.309Z,11.57
2017-09-27T15:40:16.485Z,9.40
2017-09-27T15:42:45.736Z,9.40
2017-09-27T15:45:15.551Z,10.67
2017-09-27T15:47:45.109Z,11.50
2017-09-27T15:50:15.306Z,11.33
2017-09-27T15:52:44.550Z,9.93
2017-09-27T15:55:14.100Z,13.67
2017-09-27T15:57:43.714Z,11.63
2017-09-27T16:00:13.072Z,10.10
2017-09-27T16:02:42.264Z,8.43
2017-09-27T16:05:11.852Z,12.47
2017-09-27T16:07:40.997Z,10.30
2017-09-27T16:10:10.408Z,11.53
2017-09-27T16:12:39.864Z,12.50
2017-09-27T16:15:09.245Z,12.83
2017-09-27T16:17:39.412Z,9.10
2017-09-27T16:20:08.736Z,13.23
2017-09-27T16:22:37.893Z,8.17
2017-09-27T16:25:07.508Z,10.83
2017-09-27T16:27:36.760Z,8.07
2017-09-27T16:30:06.102Z,7.73
2017-09-27T16:32:35.454Z,7.30
2017-09-27T16:35:04.762Z,8.70
2017-09-27T16:37:33.862Z,8.00
2017-09-27T16:40:03.348Z,8.00
2017-09-27T16:42:32.753Z,9.83
2017-09-27T16:45:02.184Z,6.50
2017-09-27T16:47:31.545Z,8.80
2017-09-27T16:50:02.276Z,9.17
2017-09-27T16:52:31.464Z,10.50
2017-09-27T16:55:01.019Z,6.90
2017-09-27T16:57:30.095Z,7.37
2017-09-27T16:59:59.393Z,7.30
2017-09-27T17:02:29.372Z,11.30
2017-09-27T17:04:58.544Z,11.10
2017-09-27T17:07:27.968Z,15.40
2017-09-27T17:09:58.268Z,14.70
2017-09-27T17:12:28.450Z,14.87
2017-09-27T17:14:57.759Z,13.10
2017-09-27T17:17:26.944Z,11.40
2017-09-27T17:19:56.293Z,10.00
2017-09-27T17:22:26.644Z,11.43
2017-09-27T17:24:56.004Z,14.20
2017-09-27T17:27:25.355Z,12.23
2017-09-27T17:29:54.622Z,10.20
2017-09-27T17:32:24.002Z,8.80
2017-09-27T17:34:53.301Z,11.13
2017-09-27T17:37:22.689Z,11.53
2017-09-27T17:39:51.813Z,7.33
2017-09-27T17:42:20.890Z,7.60
2017-09-27T17:44:50.048Z,10.00
2017-09-27T17:47:19.356Z,7.33
2017-09-27T17:49:48.801Z,4.43
2017-09-27T17:52:19.260Z,5.50
2017-09-27T17:54:49.436Z,8.10
2017-09-27T17:57:18.801Z,6.27
2017-09-27T17:59:47.991Z,3.57
2017-09-27T18:02:17.424Z,8.43
2017-09-27T18:04:48.874Z,9.13
2017-09-27T18:07:23.760Z,6.53
2017-09-27T18:09:59.647Z,3.50
2017-09-27T18:12:34.785Z,7.60
2017-09-27T18:18:30.694Z,5.10
2017-09-27T18:21:01.030Z,4.60
2017-09-27T18:23:30.474Z,7.00
2017-09-27T18:26:00.449Z,4.37
2017-09-27T18:28:30.788Z,4.57
2017-09-27T18:31:00.198Z,4.87
2017-09-27T18:33:29.741Z,5.50
2017-09-27T18:35:59.158Z,8.37
2017-09-27T18:38:28.772Z,4.90
2017-09-27T18:40:57.786Z,9.33
2017-09-27T18:43:28.254Z,4.70
2017-09-27T18:45:57.661Z,4.53
2017-09-27T18:48:26.923Z,6.23
2017-09-27T18:50:56.069Z,7.17
2017-09-27T18:53:26.493Z,4.53
2017-09-27T18:55:55.936Z,5.33
2017-09-27T18:58:25.430Z,4.30
2017-09-27T19:00:54.784Z,8.30
2017-09-27T19:03:23.989Z,4.40
2017-09-27T19:05:53.430Z,4.10
2017-09-27T19:08:22.855Z,6.63
2017-09-27T19:10:52.140Z,5.70
2017-09-27T19:13:21.393Z,6.47
2017-09-27T19:15:50.472Z,4.80
2017-09-27T19:18:19.903Z,8.63
2017-09-27T19:20:49.479Z,5.53
2017-09-27T19:23:18.960Z,5.10
2017-09-27T19:25:48.823Z,8.63
2017-09-27T19:28:18.125Z,6.87
2017-09-27T19:30:47.426Z,7.50
2017-09-27T19:33:16.874Z,10.93
2017-09-27T19:35:45.878Z,4.77
2017-09-27T19:38:16.122Z,7.30
2017-09-27T19:40:45.530Z,5.60
2017-09-27T19:43:14.777Z,5.87
2017-09-27T19:45:44.150Z,6.70
2017-09-27T19:48:13.516Z,4.33
2017-09-27T19:50:43.366Z,5.10
2017-09-27T19:53:12.608Z,6.07
2017-09-27T19:55:42.944Z,4.53
2017-09-27T19:58:13.081Z,3.40
2017-09-27T20:00:42.926Z,6.13
2017-09-27T20:03:12.370Z,5.13
2017-09-27T20:05:41.727Z,4.73
2017-09-27T20:08:11.105Z,4.43
2017-09-27T20:10:40.394Z,7.43
2017-09-27T20:13:10.248Z,3.63
2017-09-27T20:15:39.465Z,3.30
2017-09-27T20:18:08.581Z,3.87
2017-09-27T20:20:38.002Z,3.20
2017-09-27T20:23:07.465Z,4.07
2017-09-27T20:25:36.526Z,3.33
2017-09-27T20:28:05.890Z,2.80
2017-09-27T20:30:35.947Z,3.40
2017-09-27T20:33:05.383Z,3.90
2017-09-27T20:35:34.989Z,4.73
2017-09-27T20:38:04.549Z,2.80
2017-09-27T20:40:34.310Z,5.03
2017-09-27T20:43:03.579Z,7.17
2017-09-27T20:45:33.155Z,5.83
2017-09-27T20:48:03.413Z,3.23
2017-09-27T20:50:32.599Z,3.87
2017-09-27T20:53:02.052Z,5.90
2017-09-27T20:55:31.490Z,4.90
2017-09-27T20:58:02.044Z,4.53
2017-09-27T21:00:31.265Z,3.53
2017-09-27T21:03:00.451Z,4.93
2017-09-27T21:05:29.981Z,5.70
2017-09-27T21:07:59.568Z,5.10
2017-09-27T21:10:28.946Z,3.60
2017-09-27T21:12:58.390Z,7.20
2017-09-27T21:15:27.674Z,4.33
2017-09-27T21:17:56.962Z,4.40
2017-09-27T21:20:26.197Z,6.33
2017-09-27T21:22:55.560Z,9.33
2017-09-27T21:25:25.121Z,5.03
2017-09-27T21:27:54.546Z,3.70
2017-09-27T21:30:24.555Z,4.00
2017-09-27T21:32:54.712Z,4.70
2017-09-27T21:35:24.074Z,5.70
2017-09-27T21:37:53.438Z,5.70
2017-09-27T21:40:22.700Z,3.33
2017-09-27T21:42:52.086Z,6.63
2017-09-27T21:45:22.376Z,3.40
2017-09-27T21:47:51.665Z,4.33
2017-09-27T21:50:20.751Z,3.53
2017-09-27T21:52:50.338Z,3.43
2017-09-27T21:55:19.460Z,4.50
2017-09-27T21:57:49.076Z,4.33
2017-09-27T22:00:19.354Z,6.67
2017-09-27T22:02:48.482Z,9.03
2017-09-27T22:05:17.613Z,5.80
2017-09-27T22:07:46.925Z,7.40
2017-09-27T22:10:17.163Z,3.33
2017-09-27T22:12:46.570Z,2.53
2017-09-27T22:15:16.652Z,3.90
2017-09-27T22:17:46.062Z,3.20
2017-09-27T22:20:15.119Z,3.50
2017-09-27T22:22:44.709Z,3.03
2017-09-27T22:25:13.909Z,3.93
2017-09-27T22:27:43.116Z,5.97
2017-09-27T22:30:12.411Z,7.03
2017-09-27T22:32:41.616Z,3.20
2017-09-27T22:35:11.041Z,5.70
2017-09-27T22:37:40.259Z,4.13
2017-09-27T22:40:09.625Z,5.77
2017-09-27T22:42:38.965Z,3.37
2017-09-27T22:45:08.176Z,3.10
2017-09-27T22:47:37.879Z,5.27
2017-09-27T22:50:07.236Z,4.70
2017-09-27T22:52:36.303Z,4.60
2017-09-27T22:55:05.719Z,5.63
2017-09-27T22:57:35.069Z,3.27
2017-09-27T23:00:04.801Z,5.80
2017-09-27T23:02:34.757Z,3.10
2017-09-27T23:05:04.085Z,6.07
2017-09-27T23:07:33.746Z,3.30
2017-09-27T23:10:03.129Z,3.30
2017-09-27T23:12:33.442Z,4.20
2017-09-27T23:15:02.896Z,3.90
2017-09-27T23:17:32.325Z,4.70
2017-09-27T23:20:01.516Z,3.00
2017-09-27T23:22:37.185Z,4.97
2017-09-27T23:25:06.764Z,3.90
2017-09-27T23:27:37.062Z,3.07
2017-09-27T23:30:06.821Z,5.53
2017-09-27T23:32:36.602Z,4.57
2017-09-27T23:35:06.129Z,4.50
2017-09-27T23:37:35.262Z,2.80
2017-09-27T23:40:07.954Z,4.00
2017-09-27T23:42:38.507Z,5.77
2017-09-27T23:45:07.680Z,5.30
2017-09-27T23:47:37.189Z,10.13
2017-09-27T23:50:06.701Z,6.47
2017-09-27T23:52:37.684Z,3.63
2017-09-27T23:55:07.093Z,2.87
2017-09-27T23:57:36.480Z,5.60
